AirNav   BOSE A20 Aviation Headset
 
 366 users online  

1E8 Moores Airport
Degrasse, New York, USA

GOING TO DEGRASSE?


FAA INFORMATION EFFECTIVE 26 APRIL 2018

Location

FAA Identifier: 1E8
Lat/Long: 44-23-16.5000N / 075-03-58.8000W
44-23.275000N / 075-03.980000W
44.3879167 / -75.0663333
(estimated)
Elevation: 815 ft. / 248 m (estimated)
Variation: 14W (1985)
From city: 3 miles N of DEGRASSE, NY
Time zone: UTC -4 (UTC -5 during Standard Time)
Zip code: 13684

Airport Operations

Airport use: Open to the public
Activation date: 08/1966
Control tower: no
ARTCC: BOSTON CENTER
FSS: BURLINGTON FLIGHT SERVICE STATION
NOTAMs facility: BTV (NOTAM-D service available)
Attendance: UNATNDD
Wind indicator: yes
Segmented circle: no

Airport Communications

CTAF: 122.9
WX AWOS-3P at PTD (18 nm N): 118.325 (315-265-6106)

Nearby radio navigation aids

VOR radial/distance  VOR name  Freq  Var
MSSr219/34.8MASSENA VORTAC114.1014W
SLKr284/37.0SARANAC LAKE VOR/DME109.2014W

 
NDB name  Hdg/Dist  Freq  Var  ID
POTSDAM215/21.640014WPTD .--. - -..
DRUM070/34.625713WGTB --. - -...

Airport Services

Parking: tiedowns
Airframe service: NONE
Powerplant service: NONE
Bottled oxygen: NONE
Bulk oxygen: NONE

Runway Information

Runway 2/20

Dimensions: 2200 x 55 ft. / 671 x 17 m
RY 20 STARTS AT APPROX 250 FT FM TREES ON RY END.
Surface: turf, in fair condition
RUNWAY 2  RUNWAY 20
Latitude: 44-23.095392N44-23.456023N
Longitude: 075-04.003547W075-03.957098W
Elevation: 811.0 ft.815.0 ft.
Traffic pattern: leftleft
Runway heading: 019 magnetic, 005 true199 magnetic, 185 true
Obstructions: 30 ft. trees, 8 ft. from runway, 114 ft. left of centerline, 1:1 slope to clear40 ft. trees, 71 ft. from runway, 114 ft. left of centerline, 2:1 slope to clear

Airport Ownership and Management from official FAA records

Ownership: Privately-owned
Owner: KATHRYN MOORE
2522 CO. RT. 27
RUSSELL, NY 13684
Phone (315) 848-2197
Manager: ROBIN CELLECK
4482 CO. RT 27
CANTON, NY 13617
Phone (315) 379-1907

Airport Operational Statistics

Aircraft based on the field: 5
Single engine airplanes: 3
Ultralights: 2
    
Aircraft operations: avg 83/month *
100% local general aviation
* for 12-month period ending 18 July 2017

Additional Remarks

DEER ON AND INVOF ARPT.
RY 02 DITCH IMMEDIATELY RIGHT OF THLD MARKED BY CONES.
RY 20, 58 FT TREES, 263 FT FM RY BEGINNING, ACROSS RY WIDTH & APPROXIMATELY 800 FT. ALONG BOTH SIDES.
DIRT ROAD TO HANGAR CROSSES APPROXIMATE MIDPOINT OF RY.
RWY 20 3 EARTHEN MOUNDS APPROX. 5 FT. HIGH OFF RIGHT SIDE OF RUNWAY 400 FT. FROM THRESHOLD. TREES/BRUSH NEXT TO RUNWAY THRESHOLD L/S.
RWY 02 TREES/BRUSH NEXT TO CORNER OF THRESHOLD L/S.

Instrument Procedures

There are no published instrument procedures at 1E8.

Some nearby airports with instrument procedures:

KPTD - Potsdam Municipal Airport (Damon Field) (18 nm N)
KOGS - Ogdensburg International Airport (24 nm NW)
KMSS - Massena International Airport-Richards Field (34 nm N)
KGTB - Wheeler-Sack Army Airfield (34 nm SW)
KSLK - Adirondack Regional Airport (37 nm E)
 
Loc | Ops | Rwys | IFR | FBO | Links
Com | Nav | Svcs | Stats | Notes

AirNav Hotels Sweepstakes
 
Area around 1E8 (Moores Airport)
 
Road maps at: MapQuest Bing Google
 
Aerial photo
No photo
 
Sectional chart

 
Airport distance calculator
Flying to Moores Airport? Find the distance to fly.

From to 1E8

Sunrise and sunset
Times for 22-May-2018
 Local
(UTC-4)
 Zulu
(UTC)
Morning civil twilight04:5208:52
Sunrise05:2709:27
Sunset20:2700:27
Evening civil twilight21:0101:01

Current date and time
Zulu (UTC)  22-May-2018 07:46:13
Local (UTC-4)  22-May-2018 03:46:13
 
METAR
KPTD 
18nm N 
220735Z AUTO 00000KT 10SM FEW030 SCT035 OVC120 15/04 A3011 RMK AO2
KOGS 
24nm NW 
220735Z AUTO 19005KT 10SM CLR 14/07 A3011 RMK AO2 T01370072
KMSS 
34nm N 
220653Z AUTO 00000KT 10SM CLR 12/09 A3013 RMK AO2 SLP202 T01170089
KGTB 
35nm SW 
220656Z AUTO 15007KT 10SM CLR 13/07 A3013 RMK AO2 SLP203 T01340070
TAF
KMSS 
34nm N 
220520Z 2206/2306 VRB03KT P6SM SCT150 BKN250 FM221500 21006KT P6SM SCT080 OVC150 FM222000 10005KT P6SM -SHRA SCT045 OVC070 FM230100 07005KT 6SM BR VCSH BKN022 OVC040 FM230400 26003KT 5SM BR BKN035
KGTB 
35nm SW 
220100Z 2201/2307 VRB06KT 9999 BKN200 QNH3000INS BECMG 2209/2210 15009KT 6000 -RA SCT010 OVC015 QNH2979INS BECMG 2223/2224 VRB06KT 9999 NSW OVC010 QNH2980INS TX16/2201Z TN10/2209Z
KSLK 
37nm E 
220520Z 2206/2306 VRB03KT P6SM SCT150 BKN250 FM221500 20008KT P6SM BKN070 OVC120 FM221800 17008KT P6SM -SHRA OVC050 FM222100 17006KT 6SM -SHRA BR BKN018 OVC028 FM230000 VRB03KT 5SM -SHRA BR OVC010
NOTAMs
Click for the latest NOTAMs
NOTAMs are issued by the DoD/FAA and will open in a separate window not controlled by AirNav.

 

 
 

Would you like to see your business listed on this page?

 If your business provides an interesting product or service to pilots, flight crews, aircraft, or users of the Moores Airport, you should consider listing it here.  To start the listing process, click on the button below
 
Add a business
 

Other Pages about Moores Airport

Update a link
 
Copyright © AirNav, LLC. All rights reserved. Privacy Policy  Contact